Madison, Minnesota
Current Conditions -  °F | °C
As of 7:14 AM on Thursday 30 Oct 2014 (Local Time) from KDXX Reporting Station
Haze Haze  
Wind Chill: 39°   Ceiling: Unl
Heat Index: 39°   Visibility: 4mi
Dew Point: 37°   Wind: 0mph
Humidity: 93%   Direction: NA
Pressure: 30.01"   Gusts: NA
Location:  45.01°N, 96.2°W
Report Text: KDXX 301214Z AUTO 00000KT 4SM BR SCT085 04/03 A3001 RMK AO2
Loading
Personal Weather Stations






























Interactive Weather Map
Tropical Storm Tracking
New forecast layout! Learn more

10-Day Weather Forecast

Advertisements
Track Severe Weather on mobile